Time Latitude Longitude Accuracy (66% radius in meters) Altitude (meters) Speed (km/hour) Bearing (degrees) Battery (%) GPS flag
15:06:08 3.527593 -76.287227 3.0999999046326 1035.9 0.9584127664566 255.94000244141 73 1 delete
15:06:02 3.527580 -76.287133 3 1039.7 1.5246071815491 297.48001098633 73 1 delete
15:05:57 3.527547 -76.287037 2.9000000953674 1041.8 1.9312378168106 292.54000854492 73 1 delete
15:05:53 3.527515 -76.286935 3 1043.9 2.2452182769775 283.5 73 1 delete
15:05:50 3.527528 -76.286835 3.0999999046326 1039.7 0 316.98001098633 73 1 delete
15:05:45 3.527545 -76.286737 3.0999999046326 1040.8 0 270.51998901367 73 1 delete
15:05:40 3.527565 -76.286648 3 1044.5 1.2641577720642 270.01000976562 73 1 delete
15:05:37 3.527597 -76.286563 3.0999999046326 1045.1 1.6852005720139 257.85000610352 73 1 delete
15:05:33 3.527655 -76.286472 3.2000000476837 1044.6 1.4180597066879 249.38000488281 73 1 delete
15:05:30 3.527733 -76.286427 3.2000000476837 1040.6 0 222.2200012207 73 1 delete
15:05:03 3.527925 -76.286363 3.4000000953674 1033.6 0 353.29998779297 73 1 delete
15:04:56 3.527893 -76.286272 3.4000000953674 1035.4 0 353.29998779297 73 1 delete
15:04:50 3.527860 -76.286185 3.4000000953674 1037.5 0 353.29998779297 73 1 delete
15:04:37 3.527808 -76.286108 3.4000000953674 1042.7 1.2785700559616 298.38000488281 73 1 delete
15:04:33 3.527767 -76.286023 3.4000000953674 1040 0 48.040000915527 73 1 delete
15:04:23 3.527718 -76.285930 3.2999999523163 1039.5 0 48.040000915527 73 1 delete
15:04:15 3.527627 -76.285922 3.4000000953674 1032.4 0 48.040000915527 73 1 delete
15:04:13 3.527515 -76.285852 3.5999999046326 1025.6 0 48.040000915527 73 1 delete
15:04:07 3.527402 -76.285827 3.5 1027.2 0 48.040000915527 73 1 delete
15:03:59 3.527310 -76.285825 3.2000000476837 1030.8 1.4587228298187 321.05999755859 73 1 delete
15:03:54 3.527235 -76.285767 3.0999999046326 1036.5 1.9394733905792 356.95001220703 73 1 delete
15:03:47 3.527133 -76.285790 3.0999999046326 1052 0 359.2799987793 73 1 delete
15:03:31 3.527085 -76.285868 3.5999999046326 1076.1 0 228.92999267578 75 1 delete
15:03:09 3.527242 -76.285823 3 1063.2 2.1062433719635 213.33000183105 75 1 delete
15:03:04 3.527350 -76.285803 3.0999999046326 1059.7 1.6224044561386 162.58999633789 75 1 delete
15:03:00 3.527440 -76.285830 3.2000000476837 1057.3 2.3563983440399 155.66000366211 75 1 delete
15:02:57 3.527540 -76.285875 3.2999999523163 1053.6 0 176.86000061035 75 1 delete
15:02:54 3.527653 -76.285898 3.4000000953674 1048.2 0 186.60000610352 75 1 delete
15:02:48 3.527755 -76.285883 3.0999999046326 1060.3 0 186.60000610352 75 1 delete
15:02:42 3.527845 -76.285857 2.7999999523163 1067 0 297.01998901367 75 1 delete
15:02:22 3.527940 -76.285847 3.0999999046326 1052 0 292.44000244141 75 1 delete
15:02:17 3.527937 -76.285730 3.0999999046326 1038.9 1.2018764019012 297.61999511719 75 1 delete
15:02:11 3.527942 -76.285627 3 1037.8 1.4082800149918 300.29998779297 75 1 delete
15:02:06 3.527952 -76.285523 3 1043.5 2.1273469924927 279.95001220703 75 1 delete
15:02:02 3.527995 -76.285435 3.0999999046326 1039.8 1.7387316226959 234.27000427246 75 1 delete
15:01:58 3.528063 -76.285370 3.0999999046326 1039.2 2.3775019645691 252 75 1 delete
15:01:55 3.528115 -76.285292 3.0999999046326 1037.8 2.2477920055389 243.89999389648 75 1 delete
15:01:52 3.528183 -76.285200 3.2999999523163 1039 2.1546273231506 232.57000732422 75 1 delete
15:01:50 3.528238 -76.285127 3.4000000953674 1032.9 0 217.4700012207 75 1 delete
15:01:46 3.528328 -76.285033 3.5 1035.9 2.0063872337341 217.4700012207 75 1 delete
15:01:41 3.528415 -76.284957 3.9000000953674 1046.6 0 1.9400000572205 75 1 delete
15:00:40 3.528388 -76.284857 3.7000000476837 1047.8 0 262.51998901367 75 1 delete
15:00:30 3.528487 -76.284847 3.2999999523163 1056.5 0 262.51998901367 75 1 delete
15:00:23 3.528580 -76.284825 3.2000000476837 1056.3 0 262.51998901367 75 1 delete
15:00:16 3.528677 -76.284807 3.2000000476837 1048.1 0.68355113267899 223.97999572754 75 1 delete
15:00:10 3.528780 -76.284778 3.2000000476837 1039.3 1.0865786075592 241.69999694824 75 1 delete
15:00:05 3.528857 -76.284730 3.0999999046326 1039 1.019150018692 243.61000061035 75 1 delete
15:00:00 3.528927 -76.284652 3.2000000476837 1035.6 1.385632276535 223.11000061035 75 1 delete
14:59:55 3.529012 -76.284585 3.2000000476837 1033.7 2.0449914932251 218.94000244141 75 1 delete
14:59:50 3.529107 -76.284540 3 1033.3 0 251.08999633789 75 1 delete